createdAt,value
2018-05-24T00:00:47.182Z,5.07
2018-05-24T00:06:42.179Z,6.63
2018-05-24T00:12:37.223Z,5.75
2018-05-24T00:18:32.189Z,6.1
2018-05-24T00:24:27.219Z,6.64
2018-05-24T00:30:22.165Z,3.62
2018-05-24T00:36:17.187Z,10.42
2018-05-24T00:42:12.202Z,8.23
2018-05-24T00:48:07.245Z,5.42
2018-05-24T00:54:02.169Z,6.36
2018-05-24T00:59:57.233Z,5.5
2018-05-24T01:05:52.175Z,7.53
2018-05-24T01:11:47.217Z,3.39
2018-05-24T01:17:42.250Z,5.8
2018-05-24T01:23:37.204Z,4.65
2018-05-24T01:29:32.210Z,5.34
2018-05-24T01:35:27.275Z,6.8
2018-05-24T01:41:22.208Z,5.01
2018-05-24T01:47:17.278Z,5.48
2018-05-24T01:53:12.200Z,4.29
2018-05-24T01:59:07.288Z,7.1
2018-05-24T02:05:02.424Z,5.47
2018-05-24T02:10:57.192Z,5.2
2018-05-24T02:16:52.214Z,6.67
2018-05-24T02:22:47.206Z,4.8
2018-05-24T02:28:42.210Z,7.91
2018-05-24T02:34:37.210Z,6.8
2018-05-24T02:40:32.201Z,4.16
2018-05-24T02:46:27.279Z,7.57
2018-05-24T02:52:22.241Z,8.27
2018-05-24T02:58:17.229Z,7.66
2018-05-24T03:04:12.209Z,10.83
2018-05-24T03:10:07.238Z,8.01
2018-05-24T03:16:02.272Z,10.4
2018-05-24T03:21:57.246Z,10.84
2018-05-24T03:27:52.238Z,8.04
2018-05-24T03:33:47.287Z,9.91
2018-05-24T03:39:42.254Z,6.86
2018-05-24T03:45:37.225Z,7.11
2018-05-24T03:51:32.267Z,7.53
2018-05-24T03:57:27.276Z,6.66
2018-05-24T04:03:22.288Z,9.05
2018-05-24T04:09:17.391Z,8.93
2018-05-24T04:15:12.268Z,7.81
2018-05-24T04:21:07.313Z,7.58
2018-05-24T04:27:02.341Z,10.99
2018-05-24T04:32:57.303Z,9.52
2018-05-24T04:38:52.275Z,13.81
2018-05-24T04:44:47.253Z,11.48
2018-05-24T04:50:42.282Z,8.88
2018-05-24T04:56:37.276Z,12.47
2018-05-24T05:02:32.258Z,9.77
2018-05-24T05:08:27.252Z,17.32
2018-05-24T05:14:22.254Z,13.82
2018-05-24T05:20:17.272Z,17.54
2018-05-24T05:26:12.303Z,15.2
2018-05-24T05:32:07.254Z,13.88
2018-05-24T05:38:02.333Z,17.1
2018-05-24T05:43:57.293Z,12.17
2018-05-24T05:49:52.309Z,7.72
2018-05-24T05:55:47.297Z,10.51
2018-05-24T06:01:42.362Z,12.58
2018-05-24T06:07:37.341Z,14.22
2018-05-24T06:13:32.312Z,17.54
2018-05-24T06:19:27.294Z,16.83
2018-05-24T06:25:22.291Z,25.37
2018-05-24T06:31:17.289Z,22.55
2018-05-24T06:37:12.370Z,11.73
2018-05-24T06:43:07.321Z,16.79
2018-05-24T06:49:02.314Z,13.9
2018-05-24T06:54:57.285Z,17.74
2018-05-24T07:00:52.285Z,16.68
2018-05-24T07:06:47.298Z,14.29
2018-05-24T07:12:42.319Z,13.93
2018-05-24T07:18:37.422Z,19.3
2018-05-24T07:24:32.366Z,17.71
2018-05-24T07:30:27.320Z,14.2
2018-05-24T07:36:22.292Z,22.22
2018-05-24T07:42:17.364Z,15.4
2018-05-24T07:48:12.305Z,19.07
2018-05-24T07:54:07.328Z,17.94
2018-05-24T08:00:02.878Z,13.64
2018-05-24T08:05:57.316Z,19.91
2018-05-24T08:11:52.327Z,22.2
2018-05-24T08:17:47.316Z,32.62
2018-05-24T08:23:42.361Z,37.58
2018-05-24T08:29:37.305Z,24.84
2018-05-24T08:35:32.337Z,18.3
2018-05-24T08:41:27.318Z,18.3
2018-05-24T08:47:22.394Z,16.34
2018-05-24T08:53:17.349Z,17.64
2018-05-24T08:59:12.364Z,15.93
2018-05-24T09:05:07.358Z,18.85
2018-05-24T09:11:02.334Z,14.29
2018-05-24T09:16:57.324Z,13.54
2018-05-24T09:22:52.368Z,14.13
2018-05-24T09:28:47.359Z,11.65
2018-05-24T09:34:42.349Z,13.35
2018-05-24T09:40:37.324Z,12.45
2018-05-24T09:46:32.360Z,11.12
2018-05-24T09:52:27.363Z,14.1
2018-05-24T09:58:22.407Z,11.97
2018-05-24T10:04:17.381Z,17.42
2018-05-24T10:10:12.346Z,15.94
2018-05-24T10:16:07.456Z,10.66
2018-05-24T10:22:02.414Z,12.2
2018-05-24T10:27:57.373Z,16.88
2018-05-24T10:33:52.333Z,16.17
2018-05-24T10:39:47.439Z,14.36
2018-05-24T10:45:42.372Z,13.84
2018-05-24T10:51:37.430Z,15.71
2018-05-24T10:57:32.401Z,17.11
2018-05-24T11:03:27.471Z,13.15
2018-05-24T11:09:22.390Z,12.69
2018-05-24T11:15:17.399Z,14.56
2018-05-24T11:21:12.383Z,14.07
2018-05-24T11:27:07.417Z,10.5
2018-05-24T11:33:02.396Z,10.78
2018-05-24T11:38:57.407Z,12.89
2018-05-24T11:44:52.372Z,9.64
2018-05-24T11:50:47.444Z,11.44
2018-05-24T11:56:42.414Z,8.41
2018-05-24T12:02:37.389Z,10.35
2018-05-24T12:08:32.457Z,11.18
2018-05-24T12:14:27.382Z,14.35
2018-05-24T12:20:22.575Z,11.46
2018-05-24T12:26:17.428Z,13.98
2018-05-24T12:32:12.626Z,11.75
2018-05-24T12:38:07.447Z,9.72
2018-05-24T12:44:02.862Z,11.12
2018-05-24T12:49:57.438Z,9.28
2018-05-24T12:55:52.536Z,10.03
2018-05-24T13:01:47.565Z,10.07
2018-05-24T13:07:42.600Z,12.13
2018-05-24T13:13:37.435Z,14.2
2018-05-24T13:19:32.460Z,12.41
2018-05-24T13:25:27.492Z,8.83
2018-05-24T13:31:22.430Z,10.6
2018-05-24T13:37:17.560Z,10.36
2018-05-24T13:43:12.491Z,9.97
2018-05-24T13:55:02.633Z,8.85
2018-05-24T14:06:57.558Z,9.14
2018-05-24T14:06:57.723Z,8.69
2018-05-24T14:12:47.466Z,9.16
2018-05-24T14:18:42.433Z,7.12
2018-05-24T14:24:37.477Z,9.83
2018-05-24T14:30:32.458Z,7.81
2018-05-24T14:36:27.480Z,8.57
2018-05-24T14:42:22.497Z,9.59
2018-05-24T14:54:12.495Z,7.84
2018-05-24T14:54:12.540Z,9.29
2018-05-24T15:00:08.198Z,8.09
2018-05-24T15:06:02.675Z,8.29
2018-05-24T15:11:57.514Z,11.8
2018-05-24T15:17:52.459Z,7.5
2018-05-24T15:29:42.543Z,7.02
2018-05-24T15:29:42.564Z,8.38
2018-05-24T15:35:37.521Z,9.65
2018-05-24T15:41:32.499Z,9.49
2018-05-24T15:47:27.479Z,8.31
2018-05-24T15:53:22.474Z,11.52
2018-05-24T15:59:17.521Z,8.07
2018-05-24T16:17:02.522Z,7.41
2018-05-24T16:17:02.581Z,7.9
2018-05-24T16:46:37.558Z,8.09
2018-05-24T16:46:37.592Z,7.51
2018-05-24T16:46:37.608Z,7.51
2018-05-24T16:46:37.675Z,7.51
2018-05-24T16:46:37.695Z,7.51
2018-05-24T16:52:32.505Z,13.49
2018-05-24T16:58:27.784Z,10.35
2018-05-24T17:16:12.544Z,10.47
2018-05-24T17:22:07.556Z,7.71
2018-05-24T17:28:02.526Z,7.3
2018-05-24T17:33:57.523Z,6.91
2018-05-24T17:39:52.535Z,12.01
2018-05-24T17:45:47.625Z,9.76
2018-05-24T17:51:42.522Z,12.74
2018-05-24T17:57:37.563Z,7.1
2018-05-24T18:09:27.538Z,7.47
2018-05-24T18:09:27.622Z,9.91
2018-05-24T18:15:22.529Z,9.91
2018-05-24T18:27:12.595Z,9.64
2018-05-24T18:27:12.673Z,11.78
2018-05-24T18:33:07.587Z,13.1
2018-05-24T18:39:02.550Z,11.56
2018-05-24T18:44:57.563Z,10.18
2018-05-24T18:50:52.561Z,14.88
2018-05-24T18:56:47.607Z,14.3
2018-05-24T19:02:42.659Z,15.91
2018-05-24T19:08:37.602Z,11.22
2018-05-24T19:14:32.625Z,14.08
2018-05-24T19:20:27.591Z,14.2
2018-05-24T19:26:22.655Z,16.07
2018-05-24T19:32:17.595Z,17.97
2018-05-24T19:38:12.588Z,19.78
2018-05-24T19:44:07.561Z,17.01
2018-05-24T19:50:02.773Z,13.14
2018-05-24T19:55:57.610Z,17.08
2018-05-24T20:01:52.590Z,11.46
2018-05-24T20:07:47.566Z,15.24
2018-05-24T20:13:42.638Z,16.76
2018-05-24T20:19:37.621Z,16.68
2018-05-24T20:25:32.627Z,19.76
2018-05-24T20:31:27.614Z,16.88
2018-05-24T20:37:22.651Z,17.39
2018-05-24T20:43:17.639Z,16.87
2018-05-24T20:49:12.593Z,14.94
2018-05-24T20:55:07.652Z,15.98
2018-05-24T21:01:02.650Z,16
2018-05-24T21:06:57.615Z,18.03
2018-05-24T21:12:52.616Z,22.87
2018-05-24T21:18:47.648Z,17.54
2018-05-24T21:24:42.619Z,17.84
2018-05-24T21:30:37.600Z,15.64
2018-05-24T21:36:32.652Z,11.54
2018-05-24T21:42:27.626Z,10.61
2018-05-24T21:48:22.657Z,14.79
2018-05-24T21:54:17.650Z,14.66
2018-05-24T22:00:12.615Z,13.5
2018-05-24T22:06:07.650Z,15.69
2018-05-24T22:12:02.615Z,18.01
2018-05-24T22:17:57.611Z,16.77
2018-05-24T22:23:52.632Z,20
2018-05-24T22:29:47.633Z,18
2018-05-24T22:35:42.666Z,22.74
2018-05-24T22:41:37.636Z,15.81
2018-05-24T22:47:32.680Z,20.59
2018-05-24T22:53:27.669Z,19.09
2018-05-24T22:59:22.643Z,19.42
2018-05-24T23:05:17.718Z,21.15
2018-05-24T23:11:12.670Z,19.68
2018-05-24T23:17:07.666Z,20.13
2018-05-24T23:23:02.664Z,18.58
2018-05-24T23:28:57.667Z,14.98
2018-05-24T23:34:52.670Z,15.56
2018-05-24T23:40:47.683Z,16.08
2018-05-24T23:46:42.642Z,23.04
2018-05-24T23:52:37.695Z,28.82
2018-05-24T23:58:32.651Z,24.21
